Time;durP1;ratioP1;P1;durP2;ratioP2;P2;SDS_P1;SDS_P2;PMS_P1;PMS_P2;Temp;Humidity;BMP_temperature;BMP_pressure;BME280_temperature;BME280_humidity;BME280_pressure;Samples;Min_cycle;Max_cycle;Signal;HPM_P1;HPM_P2
2023/12/07 00:00:29;;;;;;;;;;;3.10;99.90;;;;;;5108233;27;19927;-78
2023/12/07 00:02:55;;;;;;;;;;;3.20;99.90;;;;;;5105539;28;19967;-78
2023/12/07 00:05:20;;;;;;;;;;;3.10;99.90;;;;;;5111174;27;19969;-77
2023/12/07 00:07:46;;;;;;;;;;;3.10;99.90;;;;;;5103310;28;20240;-77
2023/12/07 00:10:11;;;;;;;;;;;3.20;99.90;;;;;;5092855;28;20739;-77
2023/12/07 00:12:37;;;;;;;;;;;3.10;99.90;;;;;;5096560;27;19970;-78
2023/12/07 00:15:02;;;;;;;;;;;3.10;99.90;;;;;;5100273;28;19923;-78
2023/12/07 00:17:28;;;;;;;;;;;3.20;99.90;;;;;;5100735;27;19974;-78
2023/12/07 00:19:55;;;;;;;;;;;3.20;99.90;;;;;;5109618;28;20300;-78
2023/12/07 00:22:21;;;;;;;;;;;3.80;99.90;;;;;;5100898;27;19985;-77
2023/12/07 00:24:46;;;;;;;;;;;3.10;99.90;;;;;;5099597;27;20332;-77
2023/12/07 00:27:12;;;;;;;;;;;3.20;99.90;;;;;;5095806;27;20340;-77
2023/12/07 00:29:37;;;;;;;;;;;3.20;99.90;;;;;;5111600;27;19924;-78
2023/12/07 00:32:03;;;;;;;;;;;3.20;99.90;;;;;;5106597;28;20006;-77
2023/12/07 00:34:29;;;;;;;;;;;3.20;99.90;;;;;;5107701;28;19924;-78
2023/12/07 00:36:54;;;;;;;;;;;3.20;99.90;;;;;;5097183;28;19924;-77
2023/12/07 00:39:20;;;;;;;;;;;3.20;99.90;;;;;;5099113;28;19924;-78
2023/12/07 00:41:47;;;;;;;;;;;3.20;99.90;;;;;;5105996;27;19930;-78
2023/12/07 00:44:16;;;;;;;;;;;3.20;99.90;;;;;;5110520;27;20302;-77
2023/12/07 00:46:41;;;;;;;;;;;3.20;99.90;;;;;;5108404;27;19930;-78
2023/12/07 00:49:07;;;;;;;;;;;3.20;99.90;;;;;;5113233;27;20489;-78
2023/12/07 00:51:32;;;;;;;;;;;3.70;99.90;;;;;;5107612;28;19924;-78
2023/12/07 00:53:58;;;;;;;;;;;3.20;99.90;;;;;;5104930;28;19935;-77
2023/12/07 00:56:24;;;;;;;;;;;3.90;99.90;;;;;;5096200;27;19924;-77
2023/12/07 00:58:50;;;;;;;;;;;3.20;99.90;;;;;;5104582;28;19930;-77
2023/12/07 01:01:15;;;;;;;;;;;3.20;99.90;;;;;;5093876;27;19923;-77
2023/12/07 01:03:41;;;;;;;;;;;3.10;99.90;;;;;;5102160;28;19924;-77
2023/12/07 01:06:07;;;;;;;;;;;3.20;99.90;;;;;;5102699;28;20048;-77
2023/12/07 01:08:32;;;;;;;;;;;3.20;99.90;;;;;;5110346;27;19935;-77
2023/12/07 01:10:58;;;;;;;;;;;3.20;99.90;;;;;;5110687;27;19935;-78
2023/12/07 01:13:24;;;;;;;;;;;3.20;99.90;;;;;;5096323;28;19924;-78
2023/12/07 01:15:49;;;;;;;;;;;3.20;99.90;;;;;;5107648;27;19923;-77
2023/12/07 01:18:15;;;;;;;;;;;3.10;99.90;;;;;;5103778;28;20606;-78
2023/12/07 01:20:41;;;;;;;;;;;3.40;99.90;;;;;;5101088;27;19928;-76
2023/12/07 01:23:08;;;;;;;;;;;3.20;99.90;;;;;;5108338;28;19924;-77
2023/12/07 01:25:34;;;;;;;;;;;3.80;99.90;;;;;;5102930;27;19935;-76
2023/12/07 01:27:59;;;;;;;;;;;3.20;99.90;;;;;;5110116;28;19924;-76
2023/12/07 01:30:25;;;;;;;;;;;3.70;99.90;;;;;;5091663;28;19924;-78
2023/12/07 01:32:51;;;;;;;;;;;3.10;99.90;;;;;;5123348;28;20399;-78
2023/12/07 01:35:16;;;;;;;;;;;3.10;99.90;;;;;;5126356;28;19924;-80
2023/12/07 01:37:42;;;;;;;;;;;3.10;99.90;;;;;;5098380;28;19930;-77
2023/12/07 01:40:10;;;;;;;;;;;3.90;99.90;;;;;;5111444;28;19924;-79
2023/12/07 01:42:38;;;;;;;;;;;3.20;99.90;;;;;;5097851;28;20339;-79
2023/12/07 01:45:05;;;;;;;;;;;3.40;99.90;;;;;;5109783;28;19948;-79
2023/12/07 01:47:31;;;;;;;;;;;3.10;99.90;;;;;;5107033;28;19959;-78
2023/12/07 01:49:57;;;;;;;;;;;3.10;99.90;;;;;;5109652;27;19946;-78
2023/12/07 01:52:24;;;;;;;;;;;3.10;99.90;;;;;;5101083;27;19923;-76
2023/12/07 01:54:50;;;;;;;;;;;3.10;99.90;;;;;;5107963;27;20459;-78
2023/12/07 01:57:16;;;;;;;;;;;3.10;99.90;;;;;;5108720;28;20040;-78
2023/12/07 01:59:41;;;;;;;;;;;3.20;99.90;;;;;;5112441;28;20382;-78
2023/12/07 02:02:07;;;;;;;;;;;3.10;99.90;;;;;;5110646;28;19969;-78
2023/12/07 02:04:32;;;;;;;;;;;4.00;99.90;;;;;;5112163;27;19966;-78
2023/12/07 02:06:59;;;;;;;;;;;3.10;99.90;;;;;;5112715;27;19966;-79
2023/12/07 02:09:25;;;;;;;;;;;3.10;99.90;;;;;;5105691;27;20413;-78
2023/12/07 02:11:51;;;;;;;;;;;3.10;99.90;;;;;;5104206;28;19923;-78
2023/12/07 02:14:18;;;;;;;;;;;3.10;99.90;;;;;;5098669;28;19929;-78
2023/12/07 02:16:48;;;;;;;;;;;3.10;99.90;;;;;;5100273;28;19928;-78
2023/12/07 02:19:32;;;;;;;;;;;3.40;99.90;;;;;;5104958;27;20406;-78
2023/12/07 02:22:07;;;;;;;;;;;3.10;99.90;;;;;;5098741;28;20568;-79
2023/12/07 02:24:33;;;;;;;;;;;3.10;99.90;;;;;;5098949;27;19924;-76
2023/12/07 02:26:59;;;;;;;;;;;3.60;99.90;;;;;;5101813;28;19972;-77
2023/12/07 02:29:24;;;;;;;;;;;3.00;99.90;;;;;;5128526;27;19923;-76
2023/12/07 02:31:50;;;;;;;;;;;3.10;99.90;;;;;;5111975;27;20014;-76
2023/12/07 02:34:16;;;;;;;;;;;3.10;99.90;;;;;;5134173;27;19924;-77
2023/12/07 02:36:42;;;;;;;;;;;3.00;99.90;;;;;;5132085;27;20142;-77
2023/12/07 02:39:09;;;;;;;;;;;3.40;99.90;;;;;;5132564;27;19924;-76
2023/12/07 02:41:35;;;;;;;;;;;3.00;99.90;;;;;;5124281;27;19973;-77
2023/12/07 02:44:00;;;;;;;;;;;3.80;99.90;;;;;;5109842;28;19976;-76
2023/12/07 02:46:26;;;;;;;;;;;3.20;99.90;;;;;;5112462;27;19927;-76
2023/12/07 02:48:52;;;;;;;;;;;3.00;99.90;;;;;;5115171;27;19953;-76
2023/12/07 02:51:17;;;;;;;;;;;3.10;99.90;;;;;;5104384;27;19928;-77
2023/12/07 02:53:43;;;;;;;;;;;3.00;99.90;;;;;;5104896;27;19930;-76
2023/12/07 02:56:08;;;;;;;;;;;3.40;99.90;;;;;;5099684;28;20531;-76
2023/12/07 02:58:34;;;;;;;;;;;3.00;99.90;;;;;;5105442;27;19966;-76
2023/12/07 03:00:59;;;;;;;;;;;3.00;99.90;;;;;;5101569;27;20470;-77
2023/12/07 03:03:25;;;;;;;;;;;3.00;99.90;;;;;;5110877;28;20383;-76
2023/12/07 03:05:50;;;;;;;;;;;3.00;99.90;;;;;;5110192;28;20422;-77
2023/12/07 03:08:16;;;;;;;;;;;3.00;99.90;;;;;;5111207;27;20386;-76
2023/12/07 03:10:42;;;;;;;;;;;3.10;99.90;;;;;;5112137;27;19931;-76
2023/12/07 03:13:07;;;;;;;;;;;3.10;99.90;;;;;;5105745;27;19919;-76
2023/12/07 03:15:33;;;;;;;;;;;3.00;99.90;;;;;;5112778;27;19931;-77
2023/12/07 03:17:58;;;;;;;;;;;3.00;99.90;;;;;;5102240;28;19932;-77
2023/12/07 03:20:24;;;;;;;;;;;3.00;99.90;;;;;;5104907;27;19927;-77
2023/12/07 03:22:49;;;;;;;;;;;3.00;99.90;;;;;;5130608;27;19923;-77
2023/12/07 03:25:15;;;;;;;;;;;3.10;99.90;;;;;;5113837;27;19939;-77
2023/12/07 03:27:40;;;;;;;;;;;3.00;99.90;;;;;;5106994;28;20421;-76
2023/12/07 03:30:09;;;;;;;;;;;3.00;99.90;;;;;;5112183;28;19927;-77
2023/12/07 03:32:35;;;;;;;;;;;3.10;99.90;;;;;;5127915;27;20297;-77
2023/12/07 03:35:00;;;;;;;;;;;3.10;99.90;;;;;;5111327;28;20344;-77
2023/12/07 03:37:26;;;;;;;;;;;3.30;99.90;;;;;;5104993;28;19963;-77
2023/12/07 03:39:51;;;;;;;;;;;3.50;99.90;;;;;;5111758;27;20429;-77
2023/12/07 03:42:17;;;;;;;;;;;3.10;99.90;;;;;;5107816;28;20008;-78
2023/12/07 03:44:43;;;;;;;;;;;3.70;99.90;;;;;;5113116;27;20330;-77
2023/12/07 03:47:09;;;;;;;;;;;3.70;99.90;;;;;;5108315;28;19924;-77
2023/12/07 03:49:35;;;;;;;;;;;3.10;99.90;;;;;;5109211;28;20232;-76
2023/12/07 03:52:00;;;;;;;;;;;3.10;99.90;;;;;;5105986;27;20465;-76
2023/12/07 03:54:27;;;;;;;;;;;3.10;99.90;;;;;;5113534;27;19936;-76
2023/12/07 03:56:52;;;;;;;;;;;3.10;99.90;;;;;;5117356;27;19974;-76
2023/12/07 03:59:18;;;;;;;;;;;3.00;99.90;;;;;;5114315;27;20393;-76
2023/12/07 04:01:43;;;;;;;;;;;3.50;99.90;;;;;;5125176;27;19963;-76
2023/12/07 04:04:09;;;;;;;;;;;3.10;99.90;;;;;;5097710;28;19924;-76
2023/12/07 04:06:34;;;;;;;;;;;3.10;99.90;;;;;;5098856;27;19930;-76
2023/12/07 04:09:00;;;;;;;;;;;3.10;99.90;;;;;;5099814;27;20440;-77
2023/12/07 04:11:25;;;;;;;;;;;3.10;99.90;;;;;;5105087;27;19936;-76
2023/12/07 04:13:51;;;;;;;;;;;3.10;99.90;;;;;;5110750;27;20018;-77
2023/12/07 04:16:16;;;;;;;;;;;3.10;99.90;;;;;;5101735;28;19967;-76
2023/12/07 04:18:42;;;;;;;;;;;3.10;99.90;;;;;;5100059;28;19931;-77
2023/12/07 04:21:07;;;;;;;;;;;3.10;99.90;;;;;;5096979;27;20029;-76
2023/12/07 04:23:33;;;;;;;;;;;3.10;99.90;;;;;;5105979;27;19931;-77
2023/12/07 04:25:59;;;;;;;;;;;3.10;99.90;;;;;;5106722;27;20361;-77
2023/12/07 04:28:24;;;;;;;;;;;3.10;99.90;;;;;;5103730;27;20389;-77
2023/12/07 04:30:50;;;;;;;;;;;3.10;99.90;;;;;;5107278;27;19963;-76
2023/12/07 04:33:15;;;;;;;;;;;3.10;99.90;;;;;;5096627;27;19924;-76
2023/12/07 04:35:41;;;;;;;;;;;3.10;99.90;;;;;;5107895;28;19928;-76
2023/12/07 04:38:07;;;;;;;;;;;3.10;99.90;;;;;;5102270;28;19969;-76
2023/12/07 04:40:32;;;;;;;;;;;3.10;99.90;;;;;;5095432;28;20307;-76
2023/12/07 04:42:58;;;;;;;;;;;3.10;99.90;;;;;;5093105;28;19923;-76
2023/12/07 04:45:23;;;;;;;;;;;3.10;99.90;;;;;;5107097;27;19973;-76
2023/12/07 04:47:49;;;;;;;;;;;3.30;99.90;;;;;;5098429;27;19935;-76
2023/12/07 04:50:14;;;;;;;;;;;3.80;99.90;;;;;;5099039;27;19923;-76
2023/12/07 04:52:40;;;;;;;;;;;3.10;99.90;;;;;;5107691;27;20371;-76
2023/12/07 04:55:06;;;;;;;;;;;3.10;99.90;;;;;;5096025;28;20299;-76
2023/12/07 04:57:33;;;;;;;;;;;3.10;99.90;;;;;;5105864;27;19938;-77
2023/12/07 04:59:58;;;;;;;;;;;3.10;99.90;;;;;;5090395;28;19927;-76
2023/12/07 05:02:24;;;;;;;;;;;3.10;99.90;;;;;;5107463;27;19930;-76
2023/12/07 05:04:50;;;;;;;;;;;3.00;99.90;;;;;;5107343;27;20406;-76
2023/12/07 05:07:15;;;;;;;;;;;3.00;99.90;;;;;;5105727;27;20263;-76
2023/12/07 05:09:41;;;;;;;;;;;3.50;99.90;;;;;;5104818;28;20397;-76
2023/12/07 05:12:07;;;;;;;;;;;3.60;99.90;;;;;;5110547;27;19923;-76
2023/12/07 05:14:32;;;;;;;;;;;3.00;99.90;;;;;;5100527;28;19937;-76
2023/12/07 05:16:58;;;;;;;;;;;3.00;99.90;;;;;;5103511;28;19973;-77
2023/12/07 05:19:24;;;;;;;;;;;3.00;99.90;;;;;;5106633;28;20268;-76
2023/12/07 05:21:50;;;;;;;;;;;3.00;99.90;;;;;;5108428;27;19928;-76
2023/12/07 05:24:15;;;;;;;;;;;3.90;99.90;;;;;;5100102;28;20006;-76
2023/12/07 05:26:41;;;;;;;;;;;3.00;99.90;;;;;;5125566;27;20461;-76
2023/12/07 05:29:07;;;;;;;;;;;3.00;99.90;;;;;;5111412;28;19941;-75
2023/12/07 05:31:32;;;;;;;;;;;3.00;99.90;;;;;;5108945;28;19924;-76
2023/12/07 05:33:58;;;;;;;;;;;3.00;99.90;;;;;;5099959;28;19930;-76
2023/12/07 05:36:23;;;;;;;;;;;3.00;99.90;;;;;;5107514;28;19923;-76
2023/12/07 05:38:49;;;;;;;;;;;3.00;99.90;;;;;;5120608;28;20127;-76
2023/12/07 05:41:15;;;;;;;;;;;3.00;99.90;;;;;;5103270;28;19965;-76
2023/12/07 05:43:41;;;;;;;;;;;3.00;99.90;;;;;;5093204;28;20009;-76
2023/12/07 05:46:07;;;;;;;;;;;3.00;99.90;;;;;;5105491;28;19924;-75
2023/12/07 05:48:33;;;;;;;;;;;3.00;99.90;;;;;;5128190;28;20443;-76
2023/12/07 05:50:58;;;;;;;;;;;3.00;99.90;;;;;;5129095;28;19934;-75
2023/12/07 05:53:24;;;;;;;;;;;3.00;99.90;;;;;;5110791;28;20290;-76
2023/12/07 05:55:50;;;;;;;;;;;3.00;99.90;;;;;;5123807;28;19923;-76
2023/12/07 05:58:17;;;;;;;;;;;3.10;99.90;;;;;;5108943;27;19977;-76
2023/12/07 06:00:43;;;;;;;;;;;3.00;99.90;;;;;;5092274;28;19928;-76
2023/12/07 06:03:09;;;;;;;;;;;3.00;99.90;;;;;;5108652;28;19976;-76
2023/12/07 06:05:38;;;;;;;;;;;3.90;99.90;;;;;;5107741;28;19967;-76
2023/12/07 06:08:04;;;;;;;;;;;3.00;99.90;;;;;;5091855;28;19924;-76
2023/12/07 06:10:29;;;;;;;;;;;3.00;99.90;;;;;;5096994;28;20019;-77
2023/12/07 06:12:56;;;;;;;;;;;3.00;99.90;;;;;;5091786;28;20018;-76
2023/12/07 06:15:22;;;;;;;;;;;3.00;99.90;;;;;;5098383;28;20271;-77
2023/12/07 06:17:48;;;;;;;;;;;3.00;99.90;;;;;;5103977;28;20017;-76
2023/12/07 06:20:13;;;;;;;;;;;3.00;99.90;;;;;;5106896;28;19924;-76
2023/12/07 06:22:39;;;;;;;;;;;3.20;99.90;;;;;;5092777;28;19924;-76
2023/12/07 06:25:05;;;;;;;;;;;3.00;99.90;;;;;;5100693;28;20294;-76
2023/12/07 06:27:30;;;;;;;;;;;3.00;99.90;;;;;;5096925;28;20290;-76
2023/12/07 06:29:56;;;;;;;;;;;3.00;99.90;;;;;;5106973;28;19931;-76
2023/12/07 06:32:21;;;;;;;;;;;3.00;99.90;;;;;;5105995;28;19938;-76
2023/12/07 06:34:47;;;;;;;;;;;3.00;99.90;;;;;;5105094;28;20009;-77
2023/12/07 06:37:12;;;;;;;;;;;3.10;99.90;;;;;;5100763;28;19924;-77
2023/12/07 06:39:38;;;;;;;;;;;2.90;99.90;;;;;;5108964;27;20533;-76
2023/12/07 06:42:04;;;;;;;;;;;2.90;99.90;;;;;;5108539;27;19923;-77
2023/12/07 06:44:29;;;;;;;;;;;3.00;99.90;;;;;;5112471;28;19931;-76
2023/12/07 06:46:55;;;;;;;;;;;2.90;99.90;;;;;;5127165;27;19923;-77
2023/12/07 06:49:21;;;;;;;;;;;2.90;99.90;;;;;;5108914;28;19934;-77
2023/12/07 06:51:46;;;;;;;;;;;2.90;99.90;;;;;;5124995;27;19923;-76
2023/12/07 06:54:13;;;;;;;;;;;3.40;99.90;;;;;;5128600;27;19924;-76
2023/12/07 06:56:39;;;;;;;;;;;2.90;99.90;;;;;;5098111;28;19928;-76
2023/12/07 06:59:04;;;;;;;;;;;2.90;99.90;;;;;;5109410;27;20290;-75
2023/12/07 07:01:30;;;;;;;;;;;2.90;99.90;;;;;;5115122;27;19928;-76
2023/12/07 07:03:56;;;;;;;;;;;2.90;99.90;;;;;;5107399;28;19930;-76
2023/12/07 07:06:22;;;;;;;;;;;3.40;99.90;;;;;;5108696;28;19935;-76
2023/12/07 07:08:49;;;;;;;;;;;2.90;99.90;;;;;;5104877;28;19928;-76
2023/12/07 07:11:14;;;;;;;;;;;2.90;99.90;;;;;;5113360;27;20371;-76
2023/12/07 07:13:40;;;;;;;;;;;2.90;99.90;;;;;;5109076;28;19930;-77
2023/12/07 07:16:07;;;;;;;;;;;2.90;99.90;;;;;;5126874;27;19931;-76
2023/12/07 07:18:33;;;;;;;;;;;2.90;99.90;;;;;;5110158;27;20003;-76
2023/12/07 07:20:58;;;;;;;;;;;2.90;99.90;;;;;;5107573;27;20010;-76
2023/12/07 07:23:24;;;;;;;;;;;2.90;99.90;;;;;;5106270;27;19931;-76
2023/12/07 07:25:49;;;;;;;;;;;2.90;99.90;;;;;;5130782;27;20375;-77
2023/12/07 07:28:15;;;;;;;;;;;2.90;99.90;;;;;;5109551;27;19924;-75
2023/12/07 07:30:41;;;;;;;;;;;2.90;99.90;;;;;;5126729;27;19983;-76
2023/12/07 07:33:06;;;;;;;;;;;2.90;99.90;;;;;;5095510;27;19924;-77
2023/12/07 07:35:32;;;;;;;;;;;2.90;99.90;;;;;;5102959;28;19928;-76
2023/12/07 07:37:57;;;;;;;;;;;2.90;99.90;;;;;;5103343;28;19965;-78
2023/12/07 07:40:24;;;;;;;;;;;2.90;99.90;;;;;;5094541;28;19923;-77
2023/12/07 07:42:50;;;;;;;;;;;2.90;99.90;;;;;;5106740;28;19928;-76
2023/12/07 07:45:18;;;;;;;;;;;2.90;99.90;;;;;;5107798;28;19924;-76
2023/12/07 07:47:44;;;;;;;;;;;3.80;99.90;;;;;;5095140;27;19920;-77
2023/12/07 07:50:10;;;;;;;;;;;3.40;99.90;;;;;;5103439;28;20290;-78
2023/12/07 07:52:36;;;;;;;;;;;3.00;99.90;;;;;;5129606;27;19978;-75
2023/12/07 07:55:02;;;;;;;;;;;3.00;99.90;;;;;;5108770;28;20061;-76
2023/12/07 07:57:28;;;;;;;;;;;3.50;99.90;;;;;;5120006;27;19931;-76
2023/12/07 07:59:54;;;;;;;;;;;3.00;99.90;;;;;;5112659;27;20288;-76
2023/12/07 08:02:21;;;;;;;;;;;3.10;99.90;;;;;;5115842;27;19956;-77
2023/12/07 08:04:46;;;;;;;;;;;3.20;99.90;;;;;;5115610;27;19931;-76
2023/12/07 08:07:12;;;;;;;;;;;3.10;99.90;;;;;;5102012;27;19927;-77
2023/12/07 08:09:38;;;;;;;;;;;3.10;99.90;;;;;;5103688;27;19935;-83
2023/12/07 08:12:04;;;;;;;;;;;3.10;99.90;;;;;;5100388;28;20053;-77
2023/12/07 08:14:29;;;;;;;;;;;3.10;99.90;;;;;;5101273;28;19931;-77
2023/12/07 08:16:55;;;;;;;;;;;3.20;99.90;;;;;;5100796;28;20264;-77
2023/12/07 08:19:21;;;;;;;;;;;3.20;99.90;;;;;;5111482;28;20276;-77
2023/12/07 08:21:46;;;;;;;;;;;3.20;99.90;;;;;;5092281;28;19980;-77
2023/12/07 08:24:12;;;;;;;;;;;3.30;99.90;;;;;;5098994;28;20397;-76
2023/12/07 08:26:38;;;;;;;;;;;3.30;99.90;;;;;;5095588;27;19931;-78
2023/12/07 08:29:04;;;;;;;;;;;3.90;99.90;;;;;;5132016;27;19923;-79
2023/12/07 08:31:30;;;;;;;;;;;3.40;99.90;;;;;;5109798;27;20301;-77
2023/12/07 08:33:55;;;;;;;;;;;3.40;99.90;;;;;;5105721;28;19924;-77
2023/12/07 08:36:21;;;;;;;;;;;3.40;99.90;;;;;;5090810;28;19932;-77
2023/12/07 08:38:46;;;;;;;;;;;3.80;99.90;;;;;;5095008;28;20329;-77
2023/12/07 08:41:12;;;;;;;;;;;3.50;99.90;;;;;;5121717;27;19930;-77
2023/12/07 08:43:37;;;;;;;;;;;3.50;99.90;;;;;;5124619;27;19939;-77
2023/12/07 08:46:04;;;;;;;;;;;3.60;99.90;;;;;;5091553;28;19924;-77
2023/12/07 08:48:30;;;;;;;;;;;3.50;99.90;;;;;;5092527;28;20311;-77
2023/12/07 08:50:55;;;;;;;;;;;3.50;99.90;;;;;;5114523;27;19923;-77
2023/12/07 08:53:21;;;;;;;;;;;3.80;99.90;;;;;;5113161;27;20397;-77
2023/12/07 08:55:46;;;;;;;;;;;4.30;99.90;;;;;;5102022;28;19924;-77
2023/12/07 08:58:12;;;;;;;;;;;3.40;99.90;;;;;;5111411;27;20409;-77
2023/12/07 09:00:38;;;;;;;;;;;3.40;99.90;;;;;;5110220;27;20306;-78
2023/12/07 09:03:03;;;;;;;;;;;3.40;99.90;;;;;;5104747;28;19966;-77
2023/12/07 09:05:29;;;;;;;;;;;3.40;99.90;;;;;;5113169;27;19958;-77
2023/12/07 09:07:56;;;;;;;;;;;3.30;99.90;;;;;;5111140;27;19927;-75
2023/12/07 09:10:22;;;;;;;;;;;3.30;99.90;;;;;;5124181;27;19927;-75
2023/12/07 09:12:47;;;;;;;;;;;3.30;99.90;;;;;;5108878;28;19987;-77
2023/12/07 09:15:13;;;;;;;;;;;3.40;99.90;;;;;;5091213;28;19977;-77
2023/12/07 09:17:38;;;;;;;;;;;3.30;99.90;;;;;;5091290;28;19931;-77
2023/12/07 09:20:11;;;;;;;;;;;3.30;99.90;;;;;;5094342;27;20211;-76
2023/12/07 09:22:42;;;;;;;;;;;3.40;99.90;;;;;;5110508;28;19931;-77
2023/12/07 09:25:08;;;;;;;;;;;3.40;99.90;;;;;;5092725;28;19927;-79
2023/12/07 09:27:34;;;;;;;;;;;3.40;99.90;;;;;;5107886;28;19924;-76
2023/12/07 09:30:01;;;;;;;;;;;3.40;99.90;;;;;;5110808;28;20010;-77
2023/12/07 09:32:27;;;;;;;;;;;3.40;99.90;;;;;;5091077;28;19976;-76
2023/12/07 09:34:53;;;;;;;;;;;3.50;99.90;;;;;;5092976;28;19923;-76
2023/12/07 09:37:19;;;;;;;;;;;3.50;99.90;;;;;;5091305;28;19924;-76
2023/12/07 09:39:44;;;;;;;;;;;3.90;99.90;;;;;;5112017;28;19923;-77
2023/12/07 09:42:10;;;;;;;;;;;3.50;99.90;;;;;;5106015;28;19962;-77
2023/12/07 09:44:36;;;;;;;;;;;3.50;99.90;;;;;;5129617;28;19923;-77
2023/12/07 09:47:01;;;;;;;;;;;3.50;99.90;;;;;;5110259;28;20297;-77
2023/12/07 09:49:27;;;;;;;;;;;3.50;99.90;;;;;;5112243;28;20319;-77
2023/12/07 09:51:54;;;;;;;;;;;3.50;99.90;;;;;;5128186;28;20332;-77
2023/12/07 09:54:20;;;;;;;;;;;3.50;99.90;;;;;;5109644;28;19920;-76
2023/12/07 09:56:45;;;;;;;;;;;3.70;99.90;;;;;;5089464;28;20278;-77
2023/12/07 09:59:11;;;;;;;;;;;3.60;99.90;;;;;;5107913;28;19927;-77
2023/12/07 10:01:38;;;;;;;;;;;3.60;99.90;;;;;;5098581;27;19923;-77
2023/12/07 10:04:20;;;;;;;;;;;3.70;99.90;;;;;;5108653;28;19923;-77
2023/12/07 10:06:47;;;;;;;;;;;3.60;99.90;;;;;;5089297;28;19919;-77
2023/12/07 10:09:13;;;;;;;;;;;4.20;99.90;;;;;;5089810;28;20430;-77
2023/12/07 10:11:39;;;;;;;;;;;3.60;99.90;;;;;;5095436;27;19924;-77
2023/12/07 10:14:08;;;;;;;;;;;4.40;99.90;;;;;;5112940;28;20010;-77
2023/12/07 10:16:35;;;;;;;;;;;3.70;99.90;;;;;;5112076;27;19930;-77
2023/12/07 10:19:13;;;;;;;;;;;3.70;99.90;;;;;;5113554;28;19973;-77
2023/12/07 10:21:39;;;;;;;;;;;3.70;99.90;;;;;;5113896;27;19928;-77
2023/12/07 10:24:05;;;;;;;;;;;3.70;99.90;;;;;;5095112;28;19924;-77
2023/12/07 10:26:30;;;;;;;;;;;3.70;99.90;;;;;;5093861;27;19950;-77
2023/12/07 10:28:56;;;;;;;;;;;3.90;99.90;;;;;;5094734;28;19963;-77
2023/12/07 10:31:23;;;;;;;;;;;4.10;99.90;;;;;;5095532;28;19982;-76
2023/12/07 10:33:51;;;;;;;;;;;5.00;99.90;;;;;;5112864;28;19967;-76
2023/12/07 10:36:17;;;;;;;;;;;5.00;99.90;;;;;;5112667;27;19936;-76
2023/12/07 10:38:45;;;;;;;;;;;5.90;99.90;;;;;;5096754;27;19957;-76
2023/12/07 10:41:12;;;;;;;;;;;7.00;99.90;;;;;;5119848;27;19924;-76
2023/12/07 10:43:40;;;;;;;;;;;8.50;99.90;;;;;;5104875;27;19980;-75
2023/12/07 10:46:06;;;;;;;;;;;9.60;99.90;;;;;;5112165;28;20007;-76
2023/12/07 10:48:32;;;;;;;;;;;10.70;99.90;;;;;;5124431;27;19987;-76
2023/12/07 10:50:59;;;;;;;;;;;11.70;99.90;;;;;;5112281;28;19928;-76
2023/12/07 10:53:32;;;;;;;;;;;12.30;99.90;;;;;;5110970;27;19931;-76
2023/12/07 10:56:01;;;;;;;;;;;12.20;99.90;;;;;;5121775;27;20279;-76
2023/12/07 10:58:27;;;;;;;;;;;11.90;99.90;;;;;;5097016;28;19924;-76
2023/12/07 11:00:53;;;;;;;;;;;11.40;99.90;;;;;;5115337;27;20283;-76
2023/12/07 11:03:20;;;;;;;;;;;10.80;99.90;;;;;;5104923;28;19930;-76
2023/12/07 11:05:47;;;;;;;;;;;10.00;99.90;;;;;;5129250;27;20315;-76
2023/12/07 11:08:42;;;;;;;;;;;9.20;99.90;;;;;;5108845;28;19924;-77
2023/12/07 11:11:10;;;;;;;;;;;8.70;99.90;;;;;;5095707;27;19924;-77
2023/12/07 11:13:37;;;;;;;;;;;8.10;99.90;;;;;;5093785;28;19924;-77
2023/12/07 11:16:03;;;;;;;;;;;7.70;99.90;;;;;;5093915;28;19924;-76
2023/12/07 11:18:29;;;;;;;;;;;7.40;99.90;;;;;;5094865;27;19924;-77
2023/12/07 11:20:55;;;;;;;;;;;7.10;99.90;;;;;;5114255;27;20375;-76
2023/12/07 11:23:21;;;;;;;;;;;6.80;99.90;;;;;;5113500;27;19954;-76
2023/12/07 11:25:47;;;;;;;;;;;6.60;99.90;;;;;;5114034;27;19924;-76
2023/12/07 11:28:13;;;;;;;;;;;6.40;99.90;;;;;;5111978;28;20015;-75
2023/12/07 11:30:41;;;;;;;;;;;6.60;99.90;;;;;;5111160;27;19967;-76
2023/12/07 11:33:07;;;;;;;;;;;6.20;99.90;;;;;;5130421;27;19923;-76
2023/12/07 11:35:33;;;;;;;;;;;6.00;99.90;;;;;;5104104;28;20488;-75
2023/12/07 11:38:11;;;;;;;;;;;5.90;99.90;;;;;;5111978;28;19928;-75
2023/12/07 11:40:46;;;;;;;;;;;5.80;99.90;;;;;;5117454;27;19934;-76
2023/12/07 11:43:18;;;;;;;;;;;5.80;99.90;;;;;;5132374;27;20402;-76
2023/12/07 11:45:48;;;;;;;;;;;6.00;99.90;;;;;;5129500;27;19924;-76
2023/12/07 11:48:15;;;;;;;;;;;6.40;99.90;;;;;;5130554;27;19931;-76
2023/12/07 11:51:04;;;;;;;;;;;7.40;99.90;;;;;;5128996;27;19927;-76
2023/12/07 11:53:31;;;;;;;;;;;8.40;99.90;;;;;;5116505;27;20544;-76
2023/12/07 11:55:57;;;;;;;;;;;9.60;99.90;;;;;;5129452;27;20351;-76
2023/12/07 11:58:26;;;;;;;;;;;10.50;99.90;;;;;;5113609;27;20355;-75
2023/12/07 12:00:53;;;;;;;;;;;11.10;99.90;;;;;;5129611;27;19976;-76
2023/12/07 12:03:20;;;;;;;;;;;11.50;99.90;;;;;;5111883;27;19976;-76
2023/12/07 12:05:45;;;;;;;;;;;11.80;99.90;;;;;;5119153;27;20324;-76
2023/12/07 12:08:11;;;;;;;;;;;11.80;99.90;;;;;;5119459;27;19938;-76
2023/12/07 12:10:37;;;;;;;;;;;11.50;99.90;;;;;;5102869;28;19937;-76
2023/12/07 12:13:03;;;;;;;;;;;11.00;99.90;;;;;;5092555;28;19924;-75
2023/12/07 12:15:29;;;;;;;;;;;10.40;99.90;;;;;;5110629;27;19931;-75
2023/12/07 12:17:58;;;;;;;;;;;9.90;99.90;;;;;;5092575;28;19931;-78
2023/12/07 12:20:27;;;;;;;;;;;9.60;99.90;;;;;;5117975;27;19924;-76
2023/12/07 12:22:53;;;;;;;;;;;9.50;99.90;;;;;;5099188;28;20460;-77
2023/12/07 12:25:20;;;;;;;;;;;9.50;99.90;;;;;;5117013;27;19924;-80
2023/12/07 12:27:47;;;;;;;;;;;9.90;99.90;;;;;;5120523;27;20380;-78
2023/12/07 12:30:13;;;;;;;;;;;9.80;99.90;;;;;;5121295;27;19923;-78
2023/12/07 12:32:45;;;;;;;;;;;9.50;99.90;;;;;;5112115;28;20383;-77
2023/12/07 12:35:11;;;;;;;;;;;9.10;99.90;;;;;;5111933;27;19965;-78
2023/12/07 12:37:39;;;;;;;;;;;8.60;99.90;;;;;;5116381;27;19938;-77
2023/12/07 12:40:05;;;;;;;;;;;8.30;99.90;;;;;;5131671;27;20333;-78
2023/12/07 12:42:31;;;;;;;;;;;7.90;99.90;;;;;;5106266;27;20036;-77
2023/12/07 12:44:56;;;;;;;;;;;7.60;99.90;;;;;;5107139;28;20391;-78
2023/12/07 12:47:22;;;;;;;;;;;7.30;99.90;;;;;;5110237;28;19947;-78
2023/12/07 12:49:47;;;;;;;;;;;7.00;99.90;;;;;;5113247;27;19937;-77
2023/12/07 12:52:16;;;;;;;;;;;6.60;99.90;;;;;;5130313;27;19923;-78
2023/12/07 12:54:43;;;;;;;;;;;6.40;99.90;;;;;;5129149;27;19924;-77
2023/12/07 12:57:09;;;;;;;;;;;6.60;99.90;;;;;;5106476;28;20016;-78
2023/12/07 12:59:34;;;;;;;;;;;6.00;99.90;;;;;;5112573;27;20349;-78
2023/12/07 13:02:00;;;;;;;;;;;6.20;99.90;;;;;;5111417;27;20348;-78
2023/12/07 13:04:25;;;;;;;;;;;5.80;99.90;;;;;;5122422;27;19923;-78
2023/12/07 13:06:51;;;;;;;;;;;6.10;99.90;;;;;;5128914;27;19927;-78
2023/12/07 13:09:16;;;;;;;;;;;5.40;99.90;;;;;;5108136;27;20315;-79
2023/12/07 13:11:42;;;;;;;;;;;5.20;99.90;;;;;;5097749;28;19932;-78
2023/12/07 13:14:07;;;;;;;;;;;5.00;99.90;;;;;;5121368;27;20444;-78
2023/12/07 13:16:33;;;;;;;;;;;4.90;99.90;;;;;;5111126;28;19923;-78
2023/12/07 13:18:58;;;;;;;;;;;4.70;99.90;;;;;;5097316;27;19927;-78
2023/12/07 13:21:24;;;;;;;;;;;4.80;99.90;;;;;;5109872;27;19923;-78
2023/12/07 13:23:50;;;;;;;;;;;4.40;99.90;;;;;;5107887;28;19924;-79
2023/12/07 13:26:15;;;;;;;;;;;4.90;99.90;;;;;;5108763;28;19950;-79
2023/12/07 13:28:41;;;;;;;;;;;4.20;99.90;;;;;;5109452;28;19923;-78
2023/12/07 13:31:06;;;;;;;;;;;4.20;99.90;;;;;;5119819;27;20398;-78
2023/12/07 13:33:32;;;;;;;;;;;4.60;99.90;;;;;;5128448;27;20309;-78
2023/12/07 13:35:57;;;;;;;;;;;3.80;99.90;;;;;;5128004;28;19970;-78
2023/12/07 13:38:23;;;;;;;;;;;4.30;99.90;;;;;;5131103;28;19924;-77
2023/12/07 13:40:49;;;;;;;;;;;3.60;99.90;;;;;;5104396;28;19981;-77
2023/12/07 13:43:14;;;;;;;;;;;3.50;99.90;;;;;;5108692;28;19966;-77
2023/12/07 13:45:40;;;;;;;;;;;3.30;99.90;;;;;;5112497;27;20131;-78
2023/12/07 13:48:06;;;;;;;;;;;3.20;99.90;;;;;;5115274;27;19946;-80
2023/12/07 13:50:31;;;;;;;;;;;3.80;99.90;;;;;;5115966;27;21747;-79
2023/12/07 13:52:57;;;;;;;;;;;3.00;99.90;;;;;;5126718;27;20298;-78
2023/12/07 13:55:24;;;;;;;;;;;2.90;99.90;;;;;;5134112;27;20283;-78
2023/12/07 13:57:52;;;;;;;;;;;2.80;99.90;;;;;;5121775;27;20341;-78
2023/12/07 14:00:19;;;;;;;;;;;2.80;99.90;;;;;;5094568;28;19927;-77
2023/12/07 14:02:45;;;;;;;;;;;2.70;99.90;;;;;;5107422;28;19947;-78
2023/12/07 14:05:11;;;;;;;;;;;3.00;99.90;;;;;;5119446;27;19928;-78
2023/12/07 14:07:36;;;;;;;;;;;2.60;99.90;;;;;;5100252;28;20299;-77
2023/12/07 14:10:02;;;;;;;;;;;2.50;99.90;;;;;;5125031;27;19923;-77
2023/12/07 14:12:27;;;;;;;;;;;2.50;99.90;;;;;;5131378;27;19983;-76
2023/12/07 14:14:55;;;;;;;;;;;2.40;99.90;;;;;;5133285;27;19977;-75
2023/12/07 14:17:22;;;;;;;;;;;2.70;99.90;;;;;;5131694;27;19999;-77
2023/12/07 14:19:48;;;;;;;;;;;3.10;99.90;;;;;;5123204;27;19972;-77
2023/12/07 14:22:14;;;;;;;;;;;3.30;99.90;;;;;;5112873;27;19924;-77